createdAt,value
2023-05-21T00:00:32.789Z,3.83
2023-05-21T00:03:37.570Z,2.92
2023-05-21T00:06:42.575Z,5.03
2023-05-21T00:09:47.387Z,3.15
2023-05-21T00:12:51.766Z,3.45
2023-05-21T00:15:56.178Z,4.20
2023-05-21T00:19:02.224Z,4.57
2023-05-21T00:22:07.164Z,3.38
2023-05-21T00:25:12.564Z,2.78
2023-05-21T00:28:17.374Z,3.08
2023-05-21T00:31:23.405Z,3.22
2023-05-21T00:34:29.631Z,4.18
2023-05-21T00:37:34.563Z,6.32
2023-05-21T00:40:41.274Z,3.60
2023-05-21T00:43:45.945Z,3.70
2023-05-21T00:46:53.852Z,3.15
2023-05-21T00:49:59.447Z,3.60
2023-05-21T00:53:04.838Z,3.30
2023-05-21T00:56:09.703Z,3.70
2023-05-21T00:59:17.070Z,3.22
2023-05-21T01:02:24.467Z,3.67
2023-05-21T01:05:30.471Z,4.03
2023-05-21T01:08:37.771Z,3.60
2023-05-21T01:11:47.635Z,4.85
2023-05-21T01:14:53.142Z,3.10
2023-05-21T01:17:58.174Z,4.05
2023-05-21T01:21:03.420Z,3.22
2023-05-21T01:24:07.723Z,3.50
2023-05-21T01:27:12.588Z,4.88
2023-05-21T01:30:29.998Z,4.60
2023-05-21T01:33:47.534Z,5.20
2023-05-21T01:37:02.337Z,3.28
2023-05-21T01:40:36.027Z,3.85
2023-05-21T01:43:44.078Z,4.47
2023-05-21T01:46:50.862Z,3.25
2023-05-21T01:49:56.316Z,4.07
2023-05-21T01:53:05.886Z,3.65
2023-05-21T01:56:11.520Z,4.07
2023-05-21T01:59:17.342Z,4.55
2023-05-21T02:02:22.066Z,4.85
2023-05-21T02:05:26.866Z,3.47
2023-05-21T02:08:31.329Z,4.28
2023-05-21T02:11:35.968Z,3.42
2023-05-21T02:14:40.556Z,3.20
2023-05-21T02:17:48.263Z,4.90
2023-05-21T02:20:52.772Z,4.38
2023-05-21T02:23:57.515Z,5.28
2023-05-21T02:27:02.948Z,4.45
2023-05-21T02:30:10.236Z,3.85
2023-05-21T02:33:16.543Z,6.93
2023-05-21T02:36:20.940Z,4.03
2023-05-21T02:39:26.961Z,4.70
2023-05-21T02:42:32.295Z,4.43
2023-05-21T02:45:36.911Z,4.03
2023-05-21T02:48:41.796Z,4.20
2023-05-21T02:51:46.364Z,5.10
2023-05-21T02:54:52.089Z,4.00
2023-05-21T02:57:56.826Z,6.15
2023-05-21T03:01:01.589Z,4.63
2023-05-21T03:04:06.177Z,4.00
2023-05-21T03:07:14.225Z,4.30
2023-05-21T03:10:18.988Z,5.38
2023-05-21T03:13:23.823Z,4.75
2023-05-21T03:16:28.861Z,5.03
2023-05-21T03:19:35.845Z,4.47
2023-05-21T03:22:46.390Z,4.43
2023-05-21T03:25:53.576Z,3.88
2023-05-21T03:28:59.753Z,5.90
2023-05-21T03:32:06.265Z,5.55
2023-05-21T03:35:11.657Z,6.78
2023-05-21T03:38:16.477Z,5.18
2023-05-21T03:41:21.328Z,5.82
2023-05-21T03:44:32.553Z,5.50
2023-05-21T03:47:56.202Z,5.68
2023-05-21T03:51:01.519Z,5.32
2023-05-21T03:54:06.292Z,4.95
2023-05-21T03:57:13.087Z,5.47
2023-05-21T04:00:18.832Z,5.75
2023-05-21T04:03:25.541Z,6.40
2023-05-21T04:06:30.832Z,5.68
2023-05-21T04:09:36.828Z,4.70
2023-05-21T04:12:41.566Z,6.45
2023-05-21T04:15:46.749Z,5.53
2023-05-21T04:18:52.291Z,6.13
2023-05-21T04:21:58.168Z,4.47
2023-05-21T04:25:03.196Z,5.88
2023-05-21T04:28:12.689Z,5.25
2023-05-21T04:31:17.287Z,7.03
2023-05-21T04:34:22.278Z,5.30
2023-05-21T04:37:28.307Z,6.20
2023-05-21T04:40:33.956Z,5.72
2023-05-21T04:43:44.031Z,6.40
2023-05-21T04:46:51.771Z,5.78
2023-05-21T04:49:56.831Z,5.15
2023-05-21T04:53:03.410Z,4.63
2023-05-21T04:56:09.794Z,5.53
2023-05-21T04:59:14.954Z,5.50
2023-05-21T05:02:19.580Z,6.63
2023-05-21T05:05:24.338Z,6.93
2023-05-21T05:08:28.958Z,6.32
2023-05-21T05:11:33.492Z,5.45
2023-05-21T05:14:38.024Z,5.05
2023-05-21T05:17:42.625Z,5.10
2023-05-21T05:20:47.744Z,5.88
2023-05-21T05:23:52.141Z,6.70
2023-05-21T05:27:00.007Z,6.75
2023-05-21T05:30:06.653Z,6.28
2023-05-21T05:33:12.010Z,5.60
2023-05-21T05:36:17.493Z,5.78
2023-05-21T05:39:22.382Z,6.70
2023-05-21T05:42:28.737Z,5.00
2023-05-21T05:45:34.742Z,5.10
2023-05-21T05:48:42.229Z,6.40
2023-05-21T05:51:47.239Z,5.38
2023-05-21T05:54:52.022Z,6.13
2023-05-21T05:57:56.941Z,5.45
2023-05-21T06:01:02.232Z,6.60
2023-05-21T06:04:07.367Z,6.75
2023-05-21T06:07:11.939Z,5.68
2023-05-21T06:10:16.228Z,6.22
2023-05-21T06:13:21.254Z,4.38
2023-05-21T06:16:26.584Z,5.05
2023-05-21T06:19:31.505Z,5.93
2023-05-21T06:22:37.324Z,5.47
2023-05-21T06:25:44.392Z,6.25
2023-05-21T06:28:50.188Z,7.38
2023-05-21T06:31:55.176Z,6.20
2023-05-21T06:35:00.201Z,6.55
2023-05-21T06:38:04.807Z,6.15
2023-05-21T06:41:09.321Z,9.00
2023-05-21T06:44:36.036Z,5.50
2023-05-21T06:47:49.010Z,5.40
2023-05-21T06:50:54.077Z,7.07
2023-05-21T06:53:58.732Z,6.70
2023-05-21T06:57:03.484Z,6.93
2023-05-21T07:00:10.154Z,6.07
2023-05-21T07:03:16.349Z,7.30
2023-05-21T07:06:21.093Z,6.38
2023-05-21T07:09:25.799Z,5.63
2023-05-21T07:12:30.529Z,5.57
2023-05-21T07:15:35.611Z,5.78
2023-05-21T07:18:41.003Z,8.85
2023-05-21T07:21:47.002Z,5.32
2023-05-21T07:24:51.658Z,5.50
2023-05-21T07:27:57.106Z,6.75
2023-05-21T07:31:01.909Z,6.50
2023-05-21T07:34:12.585Z,6.65
2023-05-21T07:37:19.508Z,6.07
2023-05-21T07:40:25.481Z,6.38
2023-05-21T07:43:31.809Z,7.28
2023-05-21T07:46:37.213Z,6.03
2023-05-21T07:49:41.999Z,6.03
2023-05-21T07:52:46.491Z,6.30
2023-05-21T07:55:51.466Z,5.57
2023-05-21T07:59:01.882Z,13.23
2023-05-21T08:02:08.005Z,7.22
2023-05-21T08:05:13.345Z,6.28
2023-05-21T08:08:19.297Z,8.15
2023-05-21T08:11:24.649Z,6.05
2023-05-21T08:14:29.419Z,5.60
2023-05-21T08:17:34.362Z,6.80
2023-05-21T08:20:39.544Z,5.68
2023-05-21T08:23:45.232Z,7.40
2023-05-21T08:26:50.654Z,5.78
2023-05-21T08:29:56.137Z,6.18
2023-05-21T08:33:01.209Z,6.57
2023-05-21T08:36:08.446Z,6.03
2023-05-21T08:39:22.478Z,5.72
2023-05-21T08:42:49.597Z,5.65
2023-05-21T08:46:10.932Z,8.20
2023-05-21T08:49:24.169Z,5.90
2023-05-21T08:52:34.288Z,7.70
2023-05-21T08:55:42.719Z,5.75
2023-05-21T08:58:48.914Z,7.43
2023-05-21T09:01:58.259Z,7.35
2023-05-21T09:05:10.055Z,7.28
2023-05-21T09:08:35.989Z,7.03
2023-05-21T09:11:46.438Z,7.30
2023-05-21T09:14:52.051Z,6.47
2023-05-21T09:17:59.437Z,6.88
2023-05-21T09:21:29.930Z,6.13
2023-05-21T09:24:42.019Z,6.60
2023-05-21T09:27:46.872Z,5.68
2023-05-21T09:30:54.746Z,5.95
2023-05-21T09:33:59.708Z,5.85
2023-05-21T09:37:13.511Z,5.50
2023-05-21T09:40:25.158Z,7.35
2023-05-21T09:43:31.390Z,7.65
2023-05-21T09:46:42.669Z,8.18
2023-05-21T09:49:47.313Z,6.00
2023-05-21T09:52:55.637Z,7.22
2023-05-21T09:56:00.599Z,9.05
2023-05-21T09:59:05.451Z,11.02
2023-05-21T10:02:24.579Z,11.45
2023-05-21T10:05:30.480Z,10.57
2023-05-21T10:08:37.461Z,9.05
2023-05-21T10:11:45.018Z,9.73
2023-05-21T10:14:57.214Z,11.48
2023-05-21T10:18:03.576Z,9.43
2023-05-21T10:21:09.209Z,11.50
2023-05-21T10:24:14.360Z,8.75
2023-05-21T10:27:21.283Z,10.13
2023-05-21T10:30:26.120Z,10.65
2023-05-21T10:33:31.814Z,9.38
2023-05-21T10:36:37.885Z,9.57
2023-05-21T10:39:45.873Z,11.43
2023-05-21T10:43:48.160Z,10.13
2023-05-21T10:47:43.568Z,11.15
2023-05-21T10:51:29.162Z,10.55
2023-05-21T10:55:02.650Z,11.40
2023-05-21T10:58:46.758Z,9.27
2023-05-21T11:01:53.222Z,11.02
2023-05-21T11:05:02.362Z,9.73
2023-05-21T11:08:22.740Z,11.80
2023-05-21T11:11:42.641Z,7.90
2023-05-21T11:15:07.576Z,11.00
2023-05-21T11:18:14.528Z,11.50
2023-05-21T11:21:22.680Z,12.40
2023-05-21T11:24:28.394Z,9.07
2023-05-21T11:27:41.428Z,18.42
2023-05-21T11:31:25.897Z,10.93
2023-05-21T11:34:47.856Z,10.40
2023-05-21T11:37:54.499Z,13.75
2023-05-21T11:41:03.901Z,11.05
2023-05-21T11:44:09.203Z,9.15
2023-05-21T11:47:21.259Z,9.95
2023-05-21T11:50:26.241Z,11.07
2023-05-21T11:53:30.816Z,10.10
2023-05-21T11:56:41.870Z,11.00
2023-05-21T11:59:48.496Z,10.00
2023-05-21T12:02:54.412Z,12.23
2023-05-21T12:06:06.198Z,9.73
2023-05-21T12:09:12.070Z,10.05
2023-05-21T12:12:22.437Z,11.07
2023-05-21T12:15:27.751Z,11.50
2023-05-21T12:18:32.349Z,10.32
2023-05-21T12:21:37.992Z,10.13
2023-05-21T12:24:46.507Z,12.13
2023-05-21T12:27:57.938Z,10.25
2023-05-21T12:31:02.859Z,11.65
2023-05-21T12:34:08.341Z,11.07
2023-05-21T12:37:35.509Z,12.35
2023-05-21T12:40:41.051Z,14.27
2023-05-21T12:43:46.893Z,11.52
2023-05-21T12:46:51.545Z,11.60
2023-05-21T12:50:01.685Z,9.75
2023-05-21T12:53:11.162Z,11.07
2023-05-21T12:56:16.553Z,11.27
2023-05-21T12:59:21.208Z,13.20
2023-05-21T13:02:47.671Z,9.85
2023-05-21T13:06:02.687Z,11.68
2023-05-21T13:09:07.774Z,10.73
2023-05-21T13:12:13.379Z,11.23
2023-05-21T13:15:17.781Z,10.43
2023-05-21T13:18:22.859Z,11.70
2023-05-21T13:21:27.560Z,13.32
2023-05-21T13:24:32.212Z,13.18
2023-05-21T13:27:37.757Z,10.25
2023-05-21T13:30:42.967Z,12.20
2023-05-21T13:33:47.836Z,10.65
2023-05-21T13:36:55.800Z,11.27
2023-05-21T13:40:01.017Z,11.38
2023-05-21T13:43:05.934Z,13.77
2023-05-21T13:46:10.941Z,17.45
2023-05-21T13:49:15.900Z,15.07
2023-05-21T13:52:21.750Z,16.25
2023-05-21T13:55:26.470Z,9.95
2023-05-21T13:58:34.647Z,12.13
2023-05-21T14:01:39.379Z,13.40
2023-05-21T14:04:43.767Z,11.15
2023-05-21T14:07:48.540Z,11.68
2023-05-21T14:10:53.552Z,8.88
2023-05-21T14:13:58.774Z,11.07
2023-05-21T14:17:03.724Z,9.55
2023-05-21T14:20:09.537Z,10.65
2023-05-21T14:23:14.089Z,10.00
2023-05-21T14:26:19.097Z,12.68
2023-05-21T14:29:24.089Z,11.07
2023-05-21T14:32:29.134Z,12.25
2023-05-21T14:35:33.812Z,11.25
2023-05-21T14:38:38.479Z,9.65
2023-05-21T14:41:42.793Z,11.13
2023-05-21T14:44:47.926Z,10.45
2023-05-21T14:47:52.551Z,11.00
2023-05-21T14:50:57.285Z,12.25
2023-05-21T14:54:01.874Z,10.80
2023-05-21T14:57:06.448Z,11.60
2023-05-21T15:00:12.698Z,10.65
2023-05-21T15:03:17.277Z,9.85
2023-05-21T15:06:22.404Z,9.18
2023-05-21T15:09:26.955Z,8.88
2023-05-21T15:12:31.657Z,12.32
2023-05-21T15:15:36.458Z,9.82
2023-05-21T15:18:41.001Z,9.85
2023-05-21T15:21:45.428Z,11.75
2023-05-21T15:24:50.035Z,9.85
2023-05-21T15:27:55.428Z,11.40
2023-05-21T15:31:00.042Z,10.68
2023-05-21T15:34:04.502Z,10.35
2023-05-21T15:37:09.049Z,12.05
2023-05-21T15:40:14.061Z,9.80
2023-05-21T15:43:18.616Z,12.75
2023-05-21T15:46:23.671Z,10.25
2023-05-21T15:49:28.203Z,9.98
2023-05-21T15:52:32.848Z,11.48
2023-05-21T15:55:38.040Z,11.43
2023-05-21T15:58:43.093Z,10.15
2023-05-21T16:01:48.085Z,13.07
2023-05-21T16:04:53.126Z,11.52
2023-05-21T16:07:57.554Z,10.45
2023-05-21T16:11:01.836Z,11.70
2023-05-21T16:14:06.497Z,10.50
2023-05-21T16:17:11.587Z,10.20
2023-05-21T16:20:18.761Z,11.27
2023-05-21T16:23:24.464Z,12.27
2023-05-21T16:26:29.471Z,9.75
2023-05-21T16:29:34.310Z,11.55
2023-05-21T16:32:39.897Z,10.45
2023-05-21T16:35:45.615Z,11.35
2023-05-21T16:38:50.411Z,8.60
2023-05-21T16:41:59.611Z,10.43
2023-05-21T16:45:05.040Z,9.55
2023-05-21T16:48:10.930Z,10.05
2023-05-21T16:51:15.408Z,12.63
2023-05-21T16:54:20.111Z,9.82
2023-05-21T16:57:24.447Z,11.35
2023-05-21T17:00:29.552Z,10.52
2023-05-21T17:03:34.188Z,9.88
2023-05-21T17:06:38.687Z,12.38
2023-05-21T17:09:43.313Z,9.98
2023-05-21T17:12:48.132Z,10.52
2023-05-21T17:15:52.865Z,10.95
2023-05-21T17:18:57.407Z,10.38
2023-05-21T17:22:02.234Z,11.68
2023-05-21T17:25:08.071Z,10.55
2023-05-21T17:28:12.567Z,11.45
2023-05-21T17:31:17.655Z,11.05
2023-05-21T17:34:24.740Z,13.90
2023-05-21T17:37:29.621Z,10.80
2023-05-21T17:40:34.284Z,10.32
2023-05-21T17:43:39.269Z,11.20
2023-05-21T17:46:45.642Z,9.20
2023-05-21T17:49:50.110Z,10.98
2023-05-21T17:52:54.742Z,11.55
2023-05-21T17:55:59.362Z,9.95
2023-05-21T17:59:06.121Z,11.00
2023-05-21T18:02:10.853Z,9.93
2023-05-21T18:05:15.324Z,10.52
2023-05-21T18:08:20.129Z,10.70
2023-05-21T18:11:28.047Z,9.52
2023-05-21T18:14:33.935Z,11.60
2023-05-21T18:17:38.476Z,10.18
2023-05-21T18:20:44.781Z,13.40
2023-05-21T18:23:49.287Z,10.80
2023-05-21T18:26:54.267Z,15.05
2023-05-21T18:30:02.380Z,15.30
2023-05-21T18:33:08.413Z,25.83
2023-05-21T18:36:13.398Z,21.27
2023-05-21T18:39:18.471Z,20.08
2023-05-21T18:42:23.027Z,19.13
2023-05-21T18:45:28.174Z,24.63
2023-05-21T18:48:33.077Z,20.48
2023-05-21T18:51:41.103Z,14.65
2023-05-21T18:54:45.953Z,18.77
2023-05-21T18:57:50.865Z,16.42
2023-05-21T19:00:55.782Z,13.63
2023-05-21T19:04:00.173Z,13.10
2023-05-21T19:07:05.116Z,11.05
2023-05-21T19:10:12.826Z,12.30
2023-05-21T19:13:17.308Z,11.18
2023-05-21T19:16:21.921Z,10.13
2023-05-21T19:19:27.030Z,8.43
2023-05-21T19:22:31.934Z,9.93
2023-05-21T19:25:36.665Z,10.02
2023-05-21T19:28:41.274Z,10.50
2023-05-21T19:31:45.825Z,9.98
2023-05-21T19:34:52.190Z,9.77
2023-05-21T19:38:00.624Z,8.73
2023-05-21T19:41:06.801Z,8.93
2023-05-21T19:44:11.937Z,9.32
2023-05-21T19:47:16.913Z,8.95
2023-05-21T19:50:22.180Z,8.52
2023-05-21T19:53:26.605Z,9.40
2023-05-21T19:56:31.012Z,9.95
2023-05-21T19:59:35.789Z,10.40
2023-05-21T20:02:41.139Z,10.73
2023-05-21T20:05:46.075Z,10.60
2023-05-21T20:08:51.845Z,9.18
2023-05-21T20:11:56.643Z,10.02
2023-05-21T20:15:01.321Z,9.32
2023-05-21T20:18:06.824Z,9.65
2023-05-21T20:21:11.647Z,10.15
2023-05-21T20:24:16.205Z,9.60
2023-05-21T20:27:20.487Z,9.20
2023-05-21T20:30:51.512Z,10.45
2023-05-21T20:33:56.334Z,9.98
2023-05-21T20:37:02.322Z,9.85
2023-05-21T20:40:07.982Z,9.48
2023-05-21T20:43:13.768Z,9.48
2023-05-21T20:46:19.936Z,10.00
2023-05-21T20:49:24.933Z,10.43
2023-05-21T20:52:29.246Z,11.23
2023-05-21T20:55:34.908Z,11.20
2023-05-21T20:58:39.952Z,11.63
2023-05-21T21:01:45.027Z,9.02
2023-05-21T21:04:50.630Z,11.18
2023-05-21T21:07:56.019Z,11.18
2023-05-21T21:11:00.899Z,10.55
2023-05-21T21:14:05.351Z,11.18
2023-05-21T21:17:10.229Z,10.63
2023-05-21T21:20:17.407Z,9.57
2023-05-21T21:23:25.007Z,10.88
2023-05-21T21:26:29.242Z,11.00
2023-05-21T21:29:33.645Z,11.75
2023-05-21T21:32:38.156Z,10.73
2023-05-21T21:35:42.810Z,11.75
2023-05-21T21:38:47.685Z,11.38
2023-05-21T21:41:52.831Z,10.70
2023-05-21T21:44:57.907Z,10.25
2023-05-21T21:48:02.671Z,10.60
2023-05-21T21:51:08.209Z,11.25
2023-05-21T21:54:12.876Z,10.20
2023-05-21T21:57:17.708Z,10.82
2023-05-21T22:00:26.659Z,11.80
2023-05-21T22:03:34.497Z,11.45
2023-05-21T22:06:39.834Z,10.50
2023-05-21T22:09:45.862Z,13.20
2023-05-21T22:12:50.694Z,12.05
2023-05-21T22:15:55.419Z,11.15
2023-05-21T22:19:01.492Z,11.85
2023-05-21T22:22:05.996Z,14.63
2023-05-21T22:25:10.541Z,17.30
2023-05-21T22:28:15.541Z,17.40
2023-05-21T22:31:20.912Z,12.13
2023-05-21T22:34:25.844Z,16.17
2023-05-21T22:37:30.170Z,13.90
2023-05-21T22:40:34.556Z,15.05
2023-05-21T22:43:39.089Z,12.27
2023-05-21T22:46:44.061Z,12.93
2023-05-21T22:49:48.570Z,11.65
2023-05-21T22:52:52.918Z,12.20
2023-05-21T22:55:57.325Z,11.18
2023-05-21T22:59:01.827Z,12.85
2023-05-21T23:02:07.226Z,11.55
2023-05-21T23:05:12.198Z,13.60
2023-05-21T23:08:16.934Z,12.82
2023-05-21T23:11:22.496Z,12.73
2023-05-21T23:14:26.979Z,13.88
2023-05-21T23:17:32.029Z,15.18
2023-05-21T23:20:37.444Z,13.75
2023-05-21T23:23:42.229Z,12.10
2023-05-21T23:26:47.287Z,11.32
2023-05-21T23:29:51.789Z,13.45
2023-05-21T23:32:56.572Z,14.32
2023-05-21T23:36:01.314Z,18.00
2023-05-21T23:39:06.678Z,15.15
2023-05-21T23:42:11.505Z,15.00
2023-05-21T23:45:17.857Z,14.43
2023-05-21T23:48:22.537Z,15.40
2023-05-21T23:51:27.003Z,14.02
2023-05-21T23:54:31.780Z,14.90
2023-05-21T23:57:36.343Z,15.43
